Time;durP1;ratioP1;P1;durP2;ratioP2;P2;SDS_P1;SDS_P2;PMS_P1;PMS_P2;Temp;Humidity;BMP_temperature;BMP_pressure;BME280_temperature;BME280_humidity;BME280_pressure;Samples;Min_cycle;Max_cycle;Signal;HPM_P1;HPM_P2
2023/04/16 00:00:02;;;;;;;44.87;13.87;;;8.80;99.90;;;;;;5066596;28;20052;-71
2023/04/16 00:02:28;;;;;;;41.95;14.60;;;8.80;99.90;;;;;;5049400;28;20044;-71
2023/04/16 00:04:54;;;;;;;43.93;14.23;;;8.80;99.90;;;;;;5062567;28;20055;-71
2023/04/16 00:07:19;;;;;;;42.70;12.37;;;8.80;99.90;;;;;;5057398;28;20056;-71
2023/04/16 00:09:45;;;;;;;37.33;12.73;;;8.80;99.90;;;;;;5055206;28;20506;-71
2023/04/16 00:12:11;;;;;;;38.13;13.40;;;8.80;99.90;;;;;;5026113;28;20041;-71
2023/04/16 00:14:36;;;;;;;37.30;13.07;;;8.80;99.90;;;;;;5044189;28;20532;-71
2023/04/16 00:17:02;;;;;;;32.83;12.57;;;8.70;99.90;;;;;;5042659;28;20045;-71
2023/04/16 00:19:28;;;;;;;35.47;13.23;;;8.80;99.90;;;;;;5060577;28;20432;-71
2023/04/16 00:21:53;;;;;;;29.70;11.10;;;8.70;99.90;;;;;;5055128;28;20171;-71
2023/04/16 00:24:19;;;;;;;40.17;11.73;;;8.70;99.90;;;;;;5039395;28;20607;-71
2023/04/16 00:26:45;;;;;;;37.23;12.37;;;8.80;99.90;;;;;;5044219;28;20048;-71
2023/04/16 00:29:11;;;;;;;33.28;12.57;;;8.70;99.90;;;;;;5036580;28;20048;-71
2023/04/16 00:31:37;;;;;;;35.03;12.70;;;8.80;99.90;;;;;;5044194;28;20122;-71
2023/04/16 00:34:03;;;;;;;38.83;13.07;;;8.70;99.90;;;;;;5038583;28;20124;-71
2023/04/16 00:36:28;;;;;;;34.75;12.93;;;8.80;99.90;;;;;;5031550;28;20036;-71
2023/04/16 00:38:55;;;;;;;32.63;11.80;;;8.70;99.90;;;;;;5058984;28;20071;-71
2023/04/16 00:41:21;;;;;;;32.88;12.20;;;8.70;99.90;;;;;;5037857;28;20826;-71
2023/04/16 00:43:48;;;;;;;33.97;12.00;;;8.70;99.90;;;;;;5061657;28;20109;-71
2023/04/16 00:46:15;;;;;;;42.25;12.35;;;8.70;99.90;;;;;;5054449;28;20131;-71
2023/04/16 00:48:42;;;;;;;36.75;12.07;;;8.70;99.90;;;;;;5024466;28;20137;-71
2023/04/16 00:51:09;;;;;;;38.33;12.38;;;8.70;99.90;;;;;;5038572;28;20478;-71
2023/04/16 00:53:35;;;;;;;;;;;8.70;99.90;;;;;;5030175;28;20159;-71
2023/04/16 00:56:06;;;;;;;31.45;11.05;;;8.70;99.90;;;;;;5022860;28;19935;-71
2023/04/16 00:58:33;;;;;;;36.45;11.75;;;8.70;99.90;;;;;;5057004;28;20044;-71
2023/04/16 01:01:00;;;;;;;37.83;11.80;;;8.80;99.90;;;;;;5018751;28;20127;-71
2023/04/16 01:03:40;;;;;;;39.13;12.63;;;8.70;99.90;;;;;;5049404;28;20084;-71
2023/04/16 01:06:06;;;;;;;39.17;12.20;;;8.70;99.90;;;;;;5038397;28;20056;-71
2023/04/16 01:08:32;;;;;;;31.58;12.40;;;8.70;99.90;;;;;;5054443;28;20047;-71
2023/04/16 01:10:58;;;;;;;38.38;13.00;;;8.70;99.90;;;;;;5051568;28;20033;-71
2023/04/16 01:13:24;;;;;;;29.50;11.80;;;8.70;99.90;;;;;;5042996;28;20093;-71
2023/04/16 01:15:50;;;;;;;40.15;13.52;;;8.70;99.90;;;;;;5057021;28;20359;-71
2023/04/16 01:18:17;;;;;;;31.38;12.63;;;8.70;99.90;;;;;;5059468;28;20040;-71
2023/04/16 01:20:43;;;;;;;37.65;12.27;;;8.70;99.90;;;;;;5040428;28;20055;-71
2023/04/16 01:23:10;;;;;;;35.00;13.00;;;8.70;99.90;;;;;;5046639;28;20493;-71
2023/04/16 01:25:35;;;;;;;34.17;11.85;;;8.70;99.90;;;;;;5042593;28;20175;-71
2023/04/16 01:28:01;;;;;;;33.77;12.10;;;8.70;99.90;;;;;;5054171;28;20036;-71
2023/04/16 01:30:27;;;;;;;33.60;11.83;;;8.70;99.90;;;;;;5046010;28;20044;-71
2023/04/16 01:32:52;;;;;;;31.43;12.23;;;8.70;99.90;;;;;;5058416;28;20517;-69
2023/04/16 01:35:18;;;;;;;32.97;12.27;;;8.70;99.90;;;;;;5040199;28;20070;-69
2023/04/16 01:37:44;;;;;;;36.87;11.33;;;8.70;99.90;;;;;;5059229;28;20271;-70
2023/04/16 01:40:10;;;;;;;36.63;13.02;;;8.70;99.90;;;;;;5051238;28;20040;-69
2023/04/16 01:42:37;;;;;;;28.02;11.48;;;8.70;99.90;;;;;;5061855;28;20044;-69
2023/04/16 01:45:03;;;;;;;31.80;11.35;;;8.70;99.90;;;;;;5062148;28;20346;-69
2023/04/16 01:47:29;;;;;;;33.35;12.02;;;8.70;99.90;;;;;;5057711;28;20044;-70
2023/04/16 01:49:54;;;;;;;25.38;11.85;;;8.70;99.90;;;;;;5026103;28;20162;-69
2023/04/16 01:52:20;;;;;;;31.83;12.43;;;8.70;99.90;;;;;;5041830;28;20067;-69
2023/04/16 01:54:46;;;;;;;32.60;12.43;;;8.60;99.90;;;;;;5062069;28;20662;-70
2023/04/16 01:57:11;;;;;;;43.30;12.57;;;8.70;99.90;;;;;;5056302;28;20045;-69
2023/04/16 01:59:37;;;;;;;36.87;12.77;;;8.70;99.90;;;;;;5059793;28;20045;-69
2023/04/16 02:02:09;;;;;;;31.47;11.70;;;8.70;99.90;;;;;;5055378;28;20033;-69
2023/04/16 02:04:37;;;;;;;31.00;10.80;;;8.70;99.90;;;;;;5026610;28;20323;-69
2023/04/16 02:07:03;;;;;;;31.60;11.80;;;8.70;99.90;;;;;;5046498;28;20045;-70
2023/04/16 02:09:29;;;;;;;;;;;8.80;99.90;;;;;;5020516;28;20047;-69
2023/04/16 02:11:55;;;;;;;29.13;11.07;;;8.80;99.90;;;;;;5068580;22;20406;-72
2023/04/16 02:14:24;;;;;;;31.40;10.77;;;8.70;99.90;;;;;;5037015;28;20131;-73
2023/04/16 02:16:52;;;;;;;31.00;11.95;;;8.70;99.90;;;;;;5038536;28;20102;-73
2023/04/16 02:19:18;;;;;;;35.67;11.35;;;8.70;99.90;;;;;;5055374;28;20467;-72
2023/04/16 02:21:43;;;;;;;27.17;10.90;;;8.70;99.90;;;;;;5045112;28;20045;-73
2023/04/16 02:24:09;;;;;;;29.80;13.00;;;8.80;99.90;;;;;;5063614;28;20063;-72
2023/04/16 02:26:35;;;;;;;30.80;11.70;;;8.80;99.90;;;;;;5044926;28;20044;-72
2023/04/16 02:29:00;;;;;;;32.03;12.30;;;8.60;99.90;;;;;;5038183;28;20037;-73
2023/04/16 02:31:27;;;;;;;25.87;12.67;;;8.70;99.90;;;;;;5042802;28;20536;-72
2023/04/16 02:33:53;;;;;;;;;;;8.70;99.90;;;;;;5050691;28;20151;-73
2023/04/16 02:36:19;;;;;;;28.88;11.32;;;8.70;99.90;;;;;;5032217;28;19959;-72
2023/04/16 02:38:45;;;;;;;38.10;12.13;;;8.70;99.90;;;;;;5046267;28;20086;-72
2023/04/16 02:41:10;;;;;;;32.38;12.57;;;8.70;99.90;;;;;;5033015;28;20355;-72
2023/04/16 02:43:36;;;;;;;33.63;11.97;;;8.70;99.90;;;;;;5048872;28;20127;-72
2023/04/16 02:46:02;;;;;;;34.13;14.47;;;8.70;99.90;;;;;;5035242;28;20324;-72
2023/04/16 02:48:27;;;;;;;31.13;13.83;;;8.70;99.90;;;;;;5060776;28;20029;-73
2023/04/16 02:50:53;;;;;;;47.00;14.57;;;8.70;99.90;;;;;;5041784;28;20560;-73
2023/04/16 02:53:19;;;;;;;50.70;15.43;;;8.70;99.90;;;;;;5053873;28;20041;-73
2023/04/16 02:55:51;;;;;;;45.33;14.97;;;8.70;99.90;;;;;;5045849;28;20051;-72
2023/04/16 02:58:18;;;;;;;32.25;14.32;;;8.60;99.90;;;;;;5044540;28;20041;-72
2023/04/16 03:00:44;;;;;;;41.63;15.40;;;8.60;99.90;;;;;;5041412;28;20211;-73
2023/04/16 03:03:09;;;;;;;37.13;14.37;;;8.60;99.90;;;;;;5047158;28;20516;-74
2023/04/16 03:05:35;;;;;;;40.27;14.77;;;8.60;99.90;;;;;;5041571;28;20306;-72
2023/04/16 03:08:02;;;;;;;44.73;15.20;;;8.60;99.90;;;;;;5044793;28;20393;-72
2023/04/16 03:10:27;;;;;;;35.35;14.98;;;8.60;99.90;;;;;;5059846;28;20091;-72
2023/04/16 03:12:53;;;;;;;37.50;14.53;;;8.70;99.90;;;;;;5027465;28;20072;-72
2023/04/16 03:15:19;;;;;;;33.77;15.10;;;8.60;99.90;;;;;;5040614;28;20033;-73
2023/04/16 03:17:44;;;;;;;46.03;14.60;;;8.60;99.90;;;;;;5046725;28;20775;-72
2023/04/16 03:20:10;;;;;;;37.93;13.33;;;8.60;99.90;;;;;;5041850;28;20196;-72
2023/04/16 03:22:37;;;;;;;44.90;15.15;;;8.70;99.90;;;;;;5059539;28;20045;-73
2023/04/16 03:25:03;;;;;;;42.53;14.60;;;8.70;99.90;;;;;;5063172;28;20405;-73
2023/04/16 03:27:29;;;;;;;37.97;14.48;;;8.70;99.90;;;;;;5043192;28;20041;-72
2023/04/16 03:29:55;;;;;;;48.42;16.08;;;8.60;99.90;;;;;;5037246;28;20045;-73
2023/04/16 03:32:21;;;;;;;45.80;15.07;;;8.70;99.90;;;;;;5058766;28;20052;-73
2023/04/16 03:34:47;;;;;;;48.07;15.00;;;8.70;99.90;;;;;;5035107;28;20059;-72
2023/04/16 03:37:12;;;;;;;53.30;15.23;;;8.70;99.90;;;;;;5056662;28;20904;-73
2023/04/16 03:39:38;;;;;;;38.97;14.53;;;8.60;99.90;;;;;;5053138;28;20125;-73
2023/04/16 03:42:04;;;;;;;35.07;13.67;;;8.60;99.90;;;;;;5041942;28;20036;-74
2023/04/16 03:44:29;;;;;;;39.83;15.30;;;8.60;99.90;;;;;;5044736;28;20122;-72
2023/04/16 03:46:55;;;;;;;39.63;15.00;;;8.60;99.90;;;;;;5059344;28;20043;-73
2023/04/16 03:49:20;;;;;;;31.80;13.23;;;8.60;99.90;;;;;;5059839;28;20127;-72
2023/04/16 03:51:46;;;;;;;35.63;13.73;;;8.60;99.90;;;;;;5033057;28;20607;-73
2023/04/16 03:54:12;;;;;;;43.87;13.13;;;8.60;99.90;;;;;;5028181;28;20078;-72
2023/04/16 03:56:40;;;;;;;43.03;14.03;;;8.60;99.90;;;;;;5040477;28;20036;-73
2023/04/16 03:59:05;;;;;;;33.88;12.88;;;8.60;99.90;;;;;;5022593;28;20280;-72
2023/04/16 04:01:31;;;;;;;41.63;12.77;;;8.60;99.90;;;;;;5059533;28;20119;-73
2023/04/16 04:03:57;;;;;;;37.97;12.67;;;8.60;99.90;;;;;;5058806;28;20040;-74
2023/04/16 04:06:22;;;;;;;37.00;12.37;;;8.60;99.90;;;;;;5037241;28;20060;-72
2023/04/16 04:08:48;;;;;;;35.03;12.27;;;8.60;99.90;;;;;;5045032;28;20041;-72
2023/04/16 04:11:13;;;;;;;34.83;12.43;;;8.60;99.90;;;;;;5040036;28;20079;-73
2023/04/16 04:13:39;;;;;;;36.30;12.77;;;8.60;99.90;;;;;;5053911;28;20087;-73
2023/04/16 04:16:05;;;;;;;30.17;12.20;;;8.60;99.90;;;;;;5040487;28;20217;-72
2023/04/16 04:18:31;;;;;;;37.03;11.23;;;8.60;99.90;;;;;;5046773;28;20056;-72
2023/04/16 04:20:56;;;;;;;28.60;10.27;;;8.50;99.90;;;;;;5047662;28;20040;-72
2023/04/16 04:23:23;;;;;;;36.80;12.68;;;8.60;99.90;;;;;;5044099;28;20078;-73
2023/04/16 04:25:48;;;;;;;31.27;12.07;;;8.60;99.90;;;;;;5063499;28;20087;-72
2023/04/16 04:28:14;;;;;;;37.23;11.23;;;8.60;99.90;;;;;;5045855;28;20080;-73
2023/04/16 04:30:40;;;;;;;35.03;12.75;;;8.60;99.90;;;;;;5044971;28;20296;-73
2023/04/16 04:33:06;;;;;;;26.92;12.65;;;8.60;99.90;;;;;;5030546;28;20421;-73
2023/04/16 04:35:32;;;;;;;35.13;13.17;;;8.60;99.90;;;;;;5046408;28;20051;-72
2023/04/16 04:37:58;;;;;;;34.08;11.90;;;8.60;99.90;;;;;;5032582;28;20044;-72
2023/04/16 04:40:23;;;;;;;27.47;12.47;;;8.60;99.90;;;;;;5059309;28;20062;-72
2023/04/16 04:42:49;;;;;;;32.57;12.63;;;8.60;99.90;;;;;;5047072;28;20070;-72
2023/04/16 04:45:15;;;;;;;36.53;12.47;;;8.60;99.90;;;;;;5051165;28;20028;-73
2023/04/16 04:47:41;;;;;;;41.20;12.10;;;8.70;99.90;;;;;;5046939;28;20092;-73
2023/04/16 04:50:07;;;;;;;34.50;12.20;;;8.70;99.90;;;;;;5046693;28;20044;-73
2023/04/16 04:52:32;;;;;;;43.28;13.30;;;8.70;99.90;;;;;;5047619;28;20037;-72
2023/04/16 04:54:58;;;;;;;41.57;12.03;;;8.70;99.90;;;;;;5045782;28;20395;-72
2023/04/16 04:57:24;;;;;;;44.00;12.00;;;8.70;99.90;;;;;;5037447;28;20060;-72
2023/04/16 04:59:49;;;;;;;43.03;13.53;;;8.70;99.90;;;;;;5044418;28;20048;-72
2023/04/16 05:02:15;;;;;;;34.90;11.77;;;8.80;99.90;;;;;;5044091;28;20489;-72
2023/04/16 05:04:41;;;;;;;37.67;12.50;;;8.80;99.90;;;;;;5042693;28;20086;-73
2023/04/16 05:07:06;;;;;;;39.53;13.10;;;8.80;99.90;;;;;;5045401;28;20039;-72
2023/04/16 05:09:32;;;;;;;38.85;13.32;;;8.80;99.90;;;;;;5047035;28;20036;-72
2023/04/16 05:11:58;;;;;;;45.70;13.70;;;8.80;99.90;;;;;;5057535;28;20044;-72
2023/04/16 05:14:23;;;;;;;41.33;12.80;;;8.80;99.90;;;;;;5062569;28;20111;-72
2023/04/16 05:16:49;;;;;;;39.33;12.80;;;8.80;99.90;;;;;;5044550;28;20335;-72
2023/04/16 05:19:16;;;;;;;36.77;12.63;;;8.80;99.90;;;;;;5037806;28;20051;-73
2023/04/16 05:21:41;;;;;;;;;;;8.80;99.90;;;;;;5045061;28;20040;-72
2023/04/16 05:24:07;;;;;;;34.15;9.98;;;8.90;99.90;;;;;;5056726;28;20285;-73
2023/04/16 05:26:32;;;;;;;27.33;11.73;;;8.90;99.90;;;;;;5041790;28;20621;-72
2023/04/16 05:28:58;;;;;;;34.23;11.63;;;8.90;99.90;;;;;;5063171;28;20234;-72
2023/04/16 05:31:24;;;;;;;42.77;11.23;;;8.90;99.90;;;;;;5059043;28;20048;-73
2023/04/16 05:33:49;;;;;;;32.53;12.43;;;8.90;99.90;;;;;;5046315;28;20482;-73
2023/04/16 05:36:15;;;;;;;38.13;11.10;;;8.90;99.90;;;;;;5045517;28;20397;-72
2023/04/16 05:38:41;;;;;;;34.88;11.48;;;8.90;99.90;;;;;;5052208;28;20051;-73
2023/04/16 05:41:06;;;;;;;39.37;10.77;;;8.90;99.90;;;;;;5061496;28;20185;-73
2023/04/16 05:43:32;;;;;;;32.27;10.00;;;8.90;99.90;;;;;;5051715;28;20039;-73
2023/04/16 05:45:57;;;;;;;31.10;11.03;;;8.90;99.90;;;;;;5061014;28;20382;-73
2023/04/16 05:48:26;;;;;;;34.47;10.95;;;8.90;99.90;;;;;;5048233;28;20048;-72
2023/04/16 05:50:52;;;;;;;37.77;11.63;;;8.90;99.90;;;;;;5061445;28;20038;-74
2023/04/16 05:53:18;;;;;;;33.40;10.88;;;8.90;99.90;;;;;;5045181;28;20041;-73
2023/04/16 05:55:44;;;;;;;34.87;11.53;;;8.90;99.90;;;;;;5060454;28;20048;-72
2023/04/16 05:58:09;;;;;;;34.83;11.53;;;8.90;99.90;;;;;;5049209;28;20403;-73
2023/04/16 06:00:35;;;;;;;38.97;11.33;;;8.90;99.90;;;;;;5057979;28;20070;-73
2023/04/16 06:03:01;;;;;;;32.63;11.70;;;8.90;99.90;;;;;;5035470;28;20521;-72
2023/04/16 06:05:27;;;;;;;34.58;12.13;;;8.90;99.90;;;;;;5044110;28;20527;-73
2023/04/16 06:07:53;;;;;;;36.17;12.95;;;9.00;99.90;;;;;;5021801;28;20067;-73
2023/04/16 06:10:18;;;;;;;44.93;12.23;;;9.00;99.90;;;;;;5047768;28;20071;-72
2023/04/16 06:12:44;;;;;;;39.60;12.17;;;9.00;99.90;;;;;;5042125;28;20475;-73
2023/04/16 06:15:10;;;;;;;37.03;12.67;;;9.00;99.90;;;;;;5043490;28;20039;-73
2023/04/16 06:17:36;;;;;;;33.13;11.20;;;9.00;99.90;;;;;;5049350;28;20040;-72
2023/04/16 06:20:01;;;;;;;33.73;13.23;;;9.10;99.90;;;;;;5053498;28;20502;-73
2023/04/16 06:22:27;;;;;;;34.10;12.23;;;9.10;99.90;;;;;;5044198;28;20041;-73
2023/04/16 06:24:53;;;;;;;37.63;14.37;;;9.10;99.90;;;;;;5025798;28;20097;-74
2023/04/16 06:27:18;;;;;;;32.93;12.70;;;9.10;99.90;;;;;;5027387;28;20371;-72
2023/04/16 06:29:44;;;;;;;34.53;12.55;;;9.10;99.90;;;;;;5052582;28;20036;-72
2023/04/16 06:32:10;;;;;;;37.07;12.03;;;9.10;99.90;;;;;;5041466;28;20389;-72
2023/04/16 06:34:37;;;;;;;39.90;12.73;;;9.10;99.90;;;;;;5037559;28;20463;-73
2023/04/16 06:37:02;;;;;;;34.42;12.27;;;9.10;99.90;;;;;;5043783;28;20076;-73
2023/04/16 06:39:28;;;;;;;40.63;13.60;;;9.10;99.90;;;;;;5044767;28;20362;-74
2023/04/16 06:41:54;;;;;;;29.80;11.27;;;9.10;99.90;;;;;;5042851;28;20481;-73
2023/04/16 06:44:20;;;;;;;43.38;12.32;;;9.10;99.90;;;;;;5026512;28;20098;-73
2023/04/16 06:46:46;;;;;;;32.80;11.17;;;9.20;99.90;;;;;;5022765;28;20470;-73
2023/04/16 06:49:11;;;;;;;36.20;12.30;;;9.30;99.90;;;;;;5063609;28;20462;-73
2023/04/16 06:51:37;;;;;;;36.93;11.57;;;9.10;99.90;;;;;;5058446;28;20098;-73
2023/04/16 06:54:03;;;;;;;35.70;13.80;;;9.20;99.90;;;;;;5024738;28;20056;-74
2023/04/16 06:56:28;;;;;;;34.87;11.63;;;9.30;99.90;;;;;;5053921;28;20036;-73
2023/04/16 06:58:56;;;;;;;39.63;11.73;;;9.30;99.90;;;;;;5060007;28;20123;-72
2023/04/16 07:01:22;;;;;;;38.50;10.68;;;9.30;99.90;;;;;;5036570;28;20056;-73
2023/04/16 07:03:48;;;;;;;38.30;11.55;;;9.30;99.90;;;;;;5057553;28;20489;-73
2023/04/16 07:06:13;;;;;;;29.50;11.60;;;9.30;99.90;;;;;;5036432;28;20564;-73
2023/04/16 07:08:39;;;;;;;32.00;11.50;;;9.40;99.90;;;;;;5056738;28;20048;-73
2023/04/16 07:11:05;;;;;;;29.07;11.33;;;9.40;99.90;;;;;;5059131;28;20060;-72
2023/04/16 07:13:30;;;;;;;38.40;11.80;;;9.40;99.90;;;;;;5056826;28;20041;-73
2023/04/16 07:15:56;;;;;;;35.87;12.03;;;9.50;99.90;;;;;;5040934;28;20036;-73
2023/04/16 07:18:21;;;;;;;35.33;11.90;;;9.50;99.90;;;;;;5041652;28;20060;-73
2023/04/16 07:20:47;;;;;;;35.93;11.43;;;9.50;99.90;;;;;;5044050;28;20140;-73
2023/04/16 07:23:13;;;;;;;31.13;10.95;;;9.60;99.90;;;;;;5040261;28;20047;-73
2023/04/16 07:25:39;;;;;;;38.27;11.70;;;9.50;99.90;;;;;;5041092;28;20048;-72
2023/04/16 07:28:04;;;;;;;33.58;11.10;;;9.50;99.90;;;;;;5042644;28;20049;-73
2023/04/16 07:30:33;;;;;;;33.17;11.90;;;9.60;99.90;;;;;;5039570;28;20072;-73
2023/04/16 07:33:00;;;;;;;34.92;12.13;;;9.60;99.90;;;;;;5023656;28;20036;-72
2023/04/16 07:35:26;;;;;;;36.63;11.50;;;9.60;99.90;;;;;;5037612;28;20044;-72
2023/04/16 07:37:52;;;;;;;31.60;11.23;;;9.70;99.90;;;;;;5040121;28;20473;-72
2023/04/16 07:40:17;;;;;;;36.93;11.10;;;9.70;99.90;;;;;;5033717;28;20052;-72
2023/04/16 07:42:43;;;;;;;33.73;11.57;;;9.70;99.90;;;;;;5050775;28;20084;-73
2023/04/16 07:45:09;;;;;;;28.07;9.27;;;9.70;99.90;;;;;;5043970;28;20040;-73
2023/04/16 07:47:35;;;;;;;34.28;11.25;;;9.80;99.90;;;;;;5051829;28;20048;-73
2023/04/16 07:50:00;;;;;;;34.33;10.57;;;9.80;99.90;;;;;;5060102;28;20126;-73
2023/04/16 07:52:26;;;;;;;28.30;10.13;;;9.90;99.90;;;;;;5053021;28;20070;-72
2023/04/16 07:54:52;;;;;;;36.40;10.60;;;9.90;99.90;;;;;;5028672;28;20765;-73
2023/04/16 07:57:17;;;;;;;33.77;10.30;;;9.90;99.90;;;;;;5048108;28;20218;-72
2023/04/16 07:59:43;;;;;;;35.13;10.40;;;10.00;99.90;;;;;;5069310;28;20632;-74
2023/04/16 08:02:13;;;;;;;33.00;10.73;;;10.00;99.90;;;;;;5043019;28;20045;-72
2023/04/16 08:04:42;;;;;;;33.97;10.32;;;10.10;99.90;;;;;;5045053;28;20123;-72
2023/04/16 08:07:10;;;;;;;35.65;11.50;;;10.10;99.90;;;;;;5035376;28;20032;-72
2023/04/16 08:09:45;;;;;;;26.87;9.37;;;10.20;99.90;;;;;;5047587;28;20044;-73
2023/04/16 08:12:11;;;;;;;29.95;10.95;;;10.30;99.90;;;;;;5052780;28;20048;-73
2023/04/16 08:14:37;;;;;;;26.30;9.87;;;10.30;99.90;;;;;;5042929;28;20033;-72
2023/04/16 08:17:02;;;;;;;26.80;10.77;;;10.30;99.90;;;;;;5046300;28;20040;-72
2023/04/16 08:19:28;;;;;;;31.00;10.47;;;10.30;99.90;;;;;;5048243;28;20032;-73
2023/04/16 08:21:55;;;;;;;25.60;9.60;;;10.40;99.90;;;;;;5044716;28;20244;-75
2023/04/16 08:24:23;;;;;;;31.83;10.10;;;10.40;99.90;;;;;;5055579;28;20515;-73
2023/04/16 08:26:49;;;;;;;26.30;10.57;;;10.40;99.90;;;;;;5061738;28;20726;-73
2023/04/16 08:29:15;;;;;;;26.55;10.02;;;10.40;99.90;;;;;;5047147;28;20054;-75
2023/04/16 08:31:40;;;;;;;30.37;10.33;;;10.40;99.90;;;;;;5041329;28;20340;-73
2023/04/16 08:34:06;;;;;;;24.60;10.43;;;10.50;99.90;;;;;;5047257;28;20059;-73
2023/04/16 08:36:32;;;;;;;28.17;10.33;;;10.60;99.90;;;;;;5046801;28;20127;-75
2023/04/16 08:39:00;;;;;;;23.63;10.40;;;10.50;99.90;;;;;;5040179;28;20044;-73
2023/04/16 08:41:28;;;;;;;29.38;10.60;;;10.60;99.90;;;;;;5062826;28;20699;-73
2023/04/16 08:43:55;;;;;;;26.83;11.10;;;10.70;99.90;;;;;;5058431;28;20389;-73
2023/04/16 08:46:23;;;;;;;30.40;10.80;;;10.70;99.90;;;;;;5041730;28;20040;-73
2023/04/16 08:48:54;;;;;;;23.08;9.40;;;10.80;99.90;;;;;;5045060;28;20094;-73
2023/04/16 08:51:23;;;;;;;37.03;10.70;;;10.80;99.90;;;;;;5034538;28;20033;-73
2023/04/16 08:53:55;;;;;;;30.67;10.93;;;10.90;99.90;;;;;;5048600;28;20044;-73
2023/04/16 08:56:22;;;;;;;27.25;10.63;;;10.90;99.90;;;;;;5044143;28;20446;-73
2023/04/16 08:58:50;;;;;;;31.30;11.45;;;11.00;99.90;;;;;;5050792;28;20048;-75
2023/04/16 09:01:17;;;;;;;26.67;10.77;;;11.00;99.90;;;;;;5044096;28;20226;-72
2023/04/16 09:03:47;;;;;;;25.13;9.82;;;11.00;99.90;;;;;;5045395;28;20048;-73
2023/04/16 09:06:15;;;;;;;35.50;10.65;;;11.00;99.90;;;;;;5041781;28;20601;-75
2023/04/16 09:08:43;;;;;;;29.30;10.80;;;11.00;99.90;;;;;;5040514;28;20044;-75
2023/04/16 09:11:08;;;;;;;25.45;10.57;;;11.10;99.90;;;;;;5043934;28;20510;-74
2023/04/16 09:13:36;;;;;;;32.30;9.90;;;11.10;99.90;;;;;;5050736;28;20052;-72
2023/04/16 09:16:03;;;;;;;23.67;10.35;;;11.10;99.90;;;;;;5044500;28;20136;-74
2023/04/16 09:18:29;;;;;;;;;;;11.20;99.90;;;;;;5047107;28;20033;-73
2023/04/16 09:20:55;;;;;;;25.38;10.13;;;11.30;99.90;;;;;;5057623;28;20457;-75
2023/04/16 09:23:21;;;;;;;37.17;9.73;;;11.30;99.90;;;;;;5064022;28;20119;-74
2023/04/16 09:25:47;;;;;;;25.45;9.95;;;11.30;99.90;;;;;;5025489;28;20135;-75
2023/04/16 09:28:39;;;;;;;26.47;9.93;;;11.40;99.90;;;;;;5045074;28;20060;-73
2023/04/16 09:31:16;;;;;;;30.55;10.38;;;11.40;99.90;;;;;;5046275;28;20105;-74
2023/04/16 09:33:43;;;;;;;32.08;11.23;;;11.40;99.90;;;;;;5044899;28;20051;-73
2023/04/16 09:36:09;;;;;;;29.23;9.70;;;11.50;99.90;;;;;;5039316;28;20408;-74
2023/04/16 09:38:53;;;;;;;31.23;10.35;;;11.50;99.90;;;;;;5028550;28;20128;-73
2023/04/16 09:41:27;;;;;;;32.13;11.10;;;11.50;99.90;;;;;;5061254;28;20152;-72
2023/04/16 09:43:56;;;;;;;23.90;9.32;;;11.50;99.90;;;;;;5044365;28;20063;-73
2023/04/16 09:46:39;;;;;;;32.03;10.80;;;11.50;99.90;;;;;;5053652;28;20071;-72
2023/04/16 09:49:23;;;;;;;26.02;9.95;;;11.60;99.90;;;;;;5046337;28;20127;-73
2023/04/16 09:51:53;;;;;;;30.88;10.32;;;11.60;99.90;;;;;;5037049;28;20487;-73
2023/04/16 09:54:19;;;;;;;24.95;10.07;;;11.60;99.90;;;;;;5045608;28;20037;-72
2023/04/16 09:56:47;;;;;;;27.30;11.23;;;11.60;99.90;;;;;;5046735;28;20036;-73
2023/04/16 09:59:20;;;;;;;27.85;10.75;;;11.70;99.90;;;;;;5039331;28;20098;-73
2023/04/16 10:01:48;;;;;;;24.70;9.65;;;11.70;99.90;;;;;;5042852;28;20083;-73
2023/04/16 10:04:14;;;;;;;32.58;10.60;;;11.70;99.90;;;;;;5055238;28;20430;-73
2023/04/16 10:06:40;;;;;;;29.48;10.63;;;11.70;99.90;;;;;;5038672;28;20197;-72
2023/04/16 10:09:09;;;;;;;25.65;10.43;;;11.80;99.90;;;;;;5052030;28;20074;-73
2023/04/16 10:11:35;;;;;;;24.52;10.68;;;11.70;99.90;;;;;;5044926;28;20501;-75
2023/04/16 10:14:04;;;;;;;29.17;10.70;;;11.70;99.90;;;;;;5028389;28;20055;-74
2023/04/16 10:16:29;;;;;;;29.38;10.80;;;11.70;99.90;;;;;;5053157;28;20068;-73
2023/04/16 10:18:58;;;;;;;28.25;11.00;;;11.80;99.90;;;;;;5053168;28;20063;-73
2023/04/16 10:21:31;;;;;;;30.85;10.40;;;11.80;99.90;;;;;;5034339;28;20061;-74
2023/04/16 10:24:01;;;;;;;22.02;10.15;;;11.90;99.90;;;;;;5054035;28;20413;-74
2023/04/16 10:26:29;;;;;;;23.80;10.43;;;11.90;99.90;;;;;;5032509;28;20049;-74
2023/04/16 10:28:57;;;;;;;29.00;9.90;;;11.90;99.90;;;;;;5027690;28;20257;-74
2023/04/16 10:31:24;;;;;;;28.90;11.75;;;12.00;99.90;;;;;;5036332;28;20513;-74
2023/04/16 10:33:51;;;;;;;28.05;10.40;;;12.00;99.90;;;;;;5033872;28;20448;-72
2023/04/16 10:36:23;;;;;;;20.48;10.02;;;12.00;99.90;;;;;;5028287;28;20127;-75
2023/04/16 10:38:49;;;;;;;35.10;10.43;;;12.00;99.90;;;;;;5028277;28;20150;-73
2023/04/16 10:41:21;;;;;;;25.13;10.35;;;12.10;99.90;;;;;;5033202;28;20062;-72
2023/04/16 10:43:49;;;;;;;24.10;10.70;;;12.10;99.90;;;;;;5029560;28;20505;-75
2023/04/16 10:46:20;;;;;;;28.60;11.18;;;12.00;99.90;;;;;;5028624;28;20095;-74
2023/04/16 10:48:46;;;;;;;26.23;11.25;;;12.00;99.90;;;;;;5036849;28;20059;-73
2023/04/16 10:51:34;;;;;;;30.17;11.30;;;11.90;99.90;;;;;;5026184;28;20036;-78
2023/04/16 10:54:28;;;;;;;31.70;11.02;;;11.90;99.90;;;;;;5042750;28;20048;-72
2023/04/16 10:56:57;;;;;;;27.73;10.65;;;11.80;99.90;;;;;;5030974;28;20252;-71
2023/04/16 10:59:23;;;;;;;24.58;10.77;;;11.80;99.90;;;;;;5035080;28;20045;-72
2023/04/16 11:02:00;;;;;;;27.10;10.77;;;11.80;99.90;;;;;;5041626;28;20128;-76
2023/04/16 11:04:32;;;;;;;25.10;10.13;;;11.90;99.90;;;;;;5036802;28;20048;-73
2023/04/16 11:07:12;;;;;;;21.27;9.88;;;11.90;99.90;;;;;;5033263;28;20040;-71
2023/04/16 11:10:03;;;;;;;35.85;12.02;;;12.00;99.90;;;;;;5035383;28;20090;-71
2023/04/16 11:12:33;;;;;;;29.67;11.65;;;12.00;99.90;;;;;;5042913;28;20064;-71
2023/04/16 11:15:03;;;;;;;27.73;11.80;;;12.10;99.90;;;;;;5063528;28;20332;-71
2023/04/16 11:17:34;;;;;;;25.52;10.82;;;12.10;99.90;;;;;;5042507;28;20387;-71
2023/04/16 11:20:00;;;;;;;27.20;12.70;;;12.20;99.90;;;;;;5057554;28;20059;-71
2023/04/16 11:22:26;;;;;;;27.85;11.40;;;12.30;99.90;;;;;;5051185;28;20036;-71
2023/04/16 11:24:55;;;;;;;;;;;12.20;99.90;;;;;;5064841;28;20037;-71
2023/04/16 11:27:24;;;;;;;23.77;11.05;;;12.20;99.90;;;;;;5047439;28;19928;-72
2023/04/16 11:30:10;;;;;;;22.17;10.20;;;12.20;99.90;;;;;;5052003;28;20087;-71
2023/04/16 11:32:37;;;;;;;20.67;10.00;;;12.10;99.90;;;;;;5046537;28;20048;-73
2023/04/16 11:35:17;;;;;;;27.13;10.48;;;12.10;99.90;;;;;;5039949;28;20393;-73
2023/04/16 11:37:43;;;;;;;25.98;10.80;;;12.10;99.90;;;;;;5036310;28;20501;-71
2023/04/16 11:40:09;;;;;;;;;;;12.00;99.90;;;;;;5019022;28;20402;-72
2023/04/16 11:42:39;;;;;;;23.30;9.65;;;12.00;99.90;;;;;;5020929;28;20264;-71
2023/04/16 11:45:10;;;;;;;18.80;9.40;;;12.00;99.90;;;;;;5041043;28;20303;-71
2023/04/16 11:47:50;;;;;;;21.23;10.45;;;12.00;99.90;;;;;;5018028;28;20048;-71
2023/04/16 11:50:20;;;;;;;25.52;10.05;;;12.10;99.90;;;;;;5043427;28;20071;-73
2023/04/16 11:52:46;;;;;;;27.95;10.35;;;12.20;99.90;;;;;;5016338;28;20194;-73
2023/04/16 11:55:17;;;;;;;22.75;10.45;;;12.20;99.90;;;;;;5013427;28;20552;-72
2023/04/16 11:57:45;;;;;;;23.50;10.60;;;12.20;99.90;;;;;;5047648;28;20079;-71
2023/04/16 12:00:12;;;;;;;26.08;9.93;;;12.10;99.90;;;;;;5043926;28;20494;-72
2023/04/16 12:02:44;;;;;;;27.15;10.40;;;12.10;99.90;;;;;;5038473;28;20049;-71
2023/04/16 12:05:30;;;;;;;24.23;9.85;;;12.10;99.90;;;;;;5043289;28;20056;-72
2023/04/16 12:07:58;;;;;;;21.25;10.32;;;12.20;99.90;;;;;;5035681;28;20091;-72
2023/04/16 12:10:24;;;;;;;29.63;9.95;;;12.20;99.90;;;;;;5052985;28;20044;-71
2023/04/16 12:12:50;;;;;;;26.77;10.88;;;12.30;99.90;;;;;;5028164;28;20360;-72
2023/04/16 12:15:15;;;;;;;27.77;11.80;;;12.30;99.90;;;;;;5054367;28;20036;-71
2023/04/16 12:17:41;;;;;;;24.10;10.80;;;12.40;99.90;;;;;;5043559;28;20048;-74
2023/04/16 12:20:12;;;;;;;22.23;10.13;;;12.50;99.90;;;;;;5031804;28;20139;-71
2023/04/16 12:22:39;;;;;;;30.63;10.35;;;12.40;99.90;;;;;;5040035;28;20079;-71
2023/04/16 12:25:13;;;;;;;27.55;10.07;;;12.50;99.90;;;;;;5056647;28;20299;-73
2023/04/16 12:27:53;;;;;;;21.75;9.73;;;12.50;99.90;;;;;;5034480;28;20067;-71
2023/04/16 12:30:21;;;;;;;23.08;9.77;;;12.60;99.90;;;;;;5034992;28;20033;-73
2023/04/16 12:32:48;;;;;;;22.60;9.55;;;12.70;99.90;;;;;;5057010;28;20044;-72
2023/04/16 12:35:32;;;;;;;27.48;10.38;;;12.80;99.90;;;;;;5045706;28;20055;-74